sensor_id;sensor_type;location;lat;lon;timestamp;pressure;altitude;pressure_sealevel;temperature;humidity
59043;BME280;44826;51.596;5.624;2023-02-22T00:01:09;101453.78;;;5.78;92.04
59043;BME280;44826;51.596;5.624;2023-02-22T00:03:47;101454.66;;;5.76;92.43
59043;BME280;44826;51.596;5.624;2023-02-22T00:06:16;101448.63;;;5.77;92.45
59043;BME280;44826;51.596;5.624;2023-02-22T00:08:42;101452.94;;;5.78;92.64
59043;BME280;44826;51.596;5.624;2023-02-22T00:11:07;101453.78;;;5.78;92.38
59043;BME280;44826;51.596;5.624;2023-02-22T00:13:34;101457.22;;;5.76;92.61
59043;BME280;44826;51.596;5.624;2023-02-22T00:15:59;101458.06;;;5.72;91.94
59043;BME280;44826;51.596;5.624;2023-02-22T00:18:26;101459.75;;;5.67;92.06
59043;BME280;44826;51.596;5.624;2023-02-22T00:20:53;101461.47;;;5.61;91.59
59043;BME280;44826;51.596;5.624;2023-02-22T00:23:21;101456.28;;;5.60;92.12
59043;BME280;44826;51.596;5.624;2023-02-22T00:25:48;101458.00;;;5.56;91.49
59043;BME280;44826;51.596;5.624;2023-02-22T00:28:14;101454.56;;;5.53;91.70
59043;BME280;44826;51.596;5.624;2023-02-22T00:30:41;101463.13;;;5.50;91.77
59043;BME280;44826;51.596;5.624;2023-02-22T00:33:13;101457.97;;;5.50;91.70
59043;BME280;44826;51.596;5.624;2023-02-22T00:35:38;101456.22;;;5.49;92.03
59043;BME280;44826;51.596;5.624;2023-02-22T00:38:04;101451.06;;;5.49;91.95
59043;BME280;44826;51.596;5.624;2023-02-22T00:40:33;101447.63;;;5.50;92.27
59043;BME280;44826;51.596;5.624;2023-02-22T00:43:00;101451.09;;;5.52;91.91
59043;BME280;44826;51.596;5.624;2023-02-22T00:45:27;101450.22;;;5.50;92.32
59043;BME280;44826;51.596;5.624;2023-02-22T00:47:53;101448.50;;;5.51;92.20
59043;BME280;44826;51.596;5.624;2023-02-22T00:50:20;101440.75;;;5.49;92.23
59043;BME280;44826;51.596;5.624;2023-02-22T00:52:46;101436.47;;;5.50;92.43
59043;BME280;44826;51.596;5.624;2023-02-22T00:55:20;101435.59;;;5.51;92.66
59043;BME280;44826;51.596;5.624;2023-02-22T00:57:45;101425.28;;;5.51;92.21
59043;BME280;44826;51.596;5.624;2023-02-22T01:00:23;101433.88;;;5.51;92.46
59043;BME280;44826;51.596;5.624;2023-02-22T01:02:49;101433.84;;;5.48;92.40
59043;BME280;44826;51.596;5.624;2023-02-22T01:05:17;101431.31;;;5.50;92.60
59043;BME280;44826;51.596;5.624;2023-02-22T01:07:43;101431.28;;;5.48;92.56
59043;BME280;44826;51.596;5.624;2023-02-22T01:10:09;101427.00;;;5.49;92.46
59043;BME280;44826;51.596;5.624;2023-02-22T01:12:35;101423.56;;;5.51;92.96
59043;BME280;44826;51.596;5.624;2023-02-22T01:15:02;101422.69;;;5.52;92.84
59043;BME280;44826;51.596;5.624;2023-02-22T01:17:28;101429.59;;;5.53;92.64
59043;BME280;44826;51.596;5.624;2023-02-22T01:19:53;101418.41;;;5.54;92.72
59043;BME280;44826;51.596;5.624;2023-02-22T01:22:19;101425.28;;;5.55;93.15
59043;BME280;44826;51.596;5.624;2023-02-22T01:24:46;101413.25;;;5.54;92.94
59043;BME280;44826;51.596;5.624;2023-02-22T01:27:12;101417.56;;;5.54;92.71
59043;BME280;44826;51.596;5.624;2023-02-22T01:29:37;101408.09;;;5.53;92.62
59043;BME280;44826;51.596;5.624;2023-02-22T01:32:03;101401.19;;;5.50;92.40
59043;BME280;44826;51.596;5.624;2023-02-22T01:34:31;101408.94;;;5.49;92.82
59043;BME280;44826;51.596;5.624;2023-02-22T01:36:57;101406.31;;;5.47;92.83
59043;BME280;44826;51.596;5.624;2023-02-22T01:39:22;101408.91;;;5.47;92.82
59043;BME280;44826;51.596;5.624;2023-02-22T01:41:48;101402.91;;;5.45;92.79
59043;BME280;44826;51.596;5.624;2023-02-22T01:46:52;101400.28;;;5.43;92.78
59043;BME280;44826;51.596;5.624;2023-02-22T01:49:18;101392.53;;;5.39;92.67
59043;BME280;44826;51.596;5.624;2023-02-22T01:51:49;101395.94;;;5.35;92.55
59043;BME280;44826;51.596;5.624;2023-02-22T01:54:28;101395.09;;;5.36;93.01
59043;BME280;44826;51.596;5.624;2023-02-22T01:57:25;101395.97;;;5.36;92.59
59043;BME280;44826;51.596;5.624;2023-02-22T01:59:59;101395.09;;;5.34;92.43
59043;BME280;44826;51.596;5.624;2023-02-22T02:02:27;101390.78;;;5.31;92.92
59043;BME280;44826;51.596;5.624;2023-02-22T02:04:53;101386.47;;;5.29;92.67
59043;BME280;44826;51.596;5.624;2023-02-22T02:07:21;101386.47;;;5.29;93.06
59043;BME280;44826;51.596;5.624;2023-02-22T02:09:55;101386.47;;;5.27;93.08
59043;BME280;44826;51.596;5.624;2023-02-22T02:12:21;101376.13;;;5.26;93.35
59043;BME280;44826;51.596;5.624;2023-02-22T02:14:47;101374.44;;;5.26;92.96
59043;BME280;44826;51.596;5.624;2023-02-22T02:17:15;101369.25;;;5.23;92.88
59043;BME280;44826;51.596;5.624;2023-02-22T02:19:47;101369.22;;;5.22;93.20
59043;BME280;44826;51.596;5.624;2023-02-22T02:22:22;101368.38;;;5.23;93.43
59043;BME280;44826;51.596;5.624;2023-02-22T02:25:10;101359.78;;;5.22;93.14
59043;BME280;44826;51.596;5.624;2023-02-22T02:33:29;101356.31;;;5.20;93.54
59043;BME280;44826;51.596;5.624;2023-02-22T02:36:07;101348.56;;;5.17;93.32
59043;BME280;44826;51.596;5.624;2023-02-22T02:38:43;101354.56;;;5.13;93.17
59043;BME280;44826;51.596;5.624;2023-02-22T02:41:20;101342.53;;;5.09;93.81
59043;BME280;44826;51.596;5.624;2023-02-22T02:43:56;101341.66;;;5.07;93.66
59043;BME280;44826;51.596;5.624;2023-02-22T02:46:29;101335.63;;;5.05;94.18
59043;BME280;44826;51.596;5.624;2023-02-22T02:48:59;101339.91;;;5.07;93.99
59043;BME280;44826;51.596;5.624;2023-02-22T02:51:33;101338.19;;;5.06;94.23
59043;BME280;44826;51.596;5.624;2023-02-22T02:54:01;101333.03;;;5.06;94.28
59043;BME280;44826;51.596;5.624;2023-02-22T02:56:27;101326.16;;;5.05;94.47
59043;BME280;44826;51.596;5.624;2023-02-22T02:58:53;101330.47;;;5.03;94.06
59043;BME280;44826;51.596;5.624;2023-02-22T03:07:20;101336.47;;;4.99;94.68
59043;BME280;44826;51.596;5.624;2023-02-22T03:10:05;101334.72;;;4.99;94.52
59043;BME280;44826;51.596;5.624;2023-02-22T03:12:46;101329.56;;;4.99;94.64
59043;BME280;44826;51.596;5.624;2023-02-22T03:15:42;101333.00;;;4.98;94.55
59043;BME280;44826;51.596;5.624;2023-02-22T03:18:15;101328.69;;;4.97;94.71
59043;BME280;44826;51.596;5.624;2023-02-22T03:20:54;101326.13;;;4.96;95.13
59043;BME280;44826;51.596;5.624;2023-02-22T03:23:36;101324.38;;;4.96;95.03
59043;BME280;44826;51.596;5.624;2023-02-22T03:26:10;101321.81;;;4.93;95.02
59043;BME280;44826;51.596;5.624;2023-02-22T03:28:39;101310.59;;;4.90;95.30
59043;BME280;44826;51.596;5.624;2023-02-22T03:31:20;101316.63;;;4.90;95.36
59043;BME280;44826;51.596;5.624;2023-02-22T03:34:00;101307.19;;;4.91;95.46
59043;BME280;44826;51.596;5.624;2023-02-22T03:36:33;101308.06;;;4.91;95.63
59043;BME280;44826;51.596;5.624;2023-02-22T03:39:04;101308.03;;;4.88;95.73
59043;BME280;44826;51.596;5.624;2023-02-22T03:41:30;101302.88;;;4.88;95.86
59043;BME280;44826;51.596;5.624;2023-02-22T03:44:05;101302.88;;;4.88;95.69
59043;BME280;44826;51.596;5.624;2023-02-22T03:46:31;101299.44;;;4.86;95.71
59043;BME280;44826;51.596;5.624;2023-02-22T03:49:04;101301.16;;;4.85;96.14
59043;BME280;44826;51.596;5.624;2023-02-22T03:51:34;101295.13;;;4.85;96.28
59043;BME280;44826;51.596;5.624;2023-02-22T03:53:59;101290.84;;;4.87;95.97
59043;BME280;44826;51.596;5.624;2023-02-22T03:56:30;101284.84;;;4.86;96.15
59043;BME280;44826;51.596;5.624;2023-02-22T03:59:06;101287.38;;;4.85;96.05
59043;BME280;44826;51.596;5.624;2023-02-22T04:01:33;101284.81;;;4.85;96.42
59043;BME280;44826;51.596;5.624;2023-02-22T04:03:58;101283.09;;;4.85;96.54
59043;BME280;44826;51.596;5.624;2023-02-22T04:06:24;101283.09;;;4.84;96.08
59043;BME280;44826;51.596;5.624;2023-02-22T04:08:50;101280.47;;;4.81;96.42
59043;BME280;44826;51.596;5.624;2023-02-22T04:11:15;101277.91;;;4.79;96.53
59043;BME280;44826;51.596;5.624;2023-02-22T04:13:40;101273.63;;;4.77;96.49
59043;BME280;44826;51.596;5.624;2023-02-22T04:16:06;101269.31;;;4.79;96.77
59043;BME280;44826;51.596;5.624;2023-02-22T04:18:31;101269.31;;;4.79;96.68
59043;BME280;44826;51.596;5.624;2023-02-22T04:20:56;101262.44;;;4.79;96.46
59043;BME280;44826;51.596;5.624;2023-02-22T04:23:21;101262.44;;;4.79;96.55
59043;BME280;44826;51.596;5.624;2023-02-22T04:25:47;101251.25;;;4.76;96.69
59043;BME280;44826;51.596;5.624;2023-02-22T04:28:12;101247.81;;;4.74;96.46
59043;BME280;44826;51.596;5.624;2023-02-22T04:30:38;101244.38;;;4.71;96.38
59043;BME280;44826;51.596;5.624;2023-02-22T04:33:03;101239.22;;;4.71;96.88
59043;BME280;44826;51.596;5.624;2023-02-22T04:35:28;101239.22;;;4.71;96.43
59043;BME280;44826;51.596;5.624;2023-02-22T04:37:54;101233.19;;;4.71;96.41
59043;BME280;44826;51.596;5.624;2023-02-22T04:40:19;101226.28;;;4.70;96.62
59043;BME280;44826;51.596;5.624;2023-02-22T04:42:44;101233.19;;;4.71;97.23
59043;BME280;44826;51.596;5.624;2023-02-22T04:45:11;101226.28;;;4.70;96.82
59043;BME280;44826;51.596;5.624;2023-02-22T04:47:37;101223.75;;;4.71;97.13
59043;BME280;44826;51.596;5.624;2023-02-22T04:50:04;101228.91;;;4.73;97.54
59043;BME280;44826;51.596;5.624;2023-02-22T04:52:30;101231.47;;;4.73;97.14
59043;BME280;44826;51.596;5.624;2023-02-22T04:54:55;101228.91;;;4.71;97.30
59043;BME280;44826;51.596;5.624;2023-02-22T04:57:21;101222.91;;;4.73;97.50
59043;BME280;44826;51.596;5.624;2023-02-22T04:59:46;101222.03;;;4.74;97.45
59043;BME280;44826;51.596;5.624;2023-02-22T05:02:11;101227.19;;;4.74;97.45
59043;BME280;44826;51.596;5.624;2023-02-22T05:04:37;101229.78;;;4.74;97.72
59043;BME280;44826;51.596;5.624;2023-02-22T05:07:03;101224.59;;;4.72;97.57
59043;BME280;44826;51.596;5.624;2023-02-22T05:09:28;101228.91;;;4.75;97.69
59043;BME280;44826;51.596;5.624;2023-02-22T05:11:53;101224.63;;;4.75;97.97
59043;BME280;44826;51.596;5.624;2023-02-22T05:14:18;101229.75;;;4.75;97.71
59043;BME280;44826;51.596;5.624;2023-02-22T05:16:44;101222.91;;;4.76;97.71
59043;BME280;44826;51.596;5.624;2023-02-22T05:19:09;101216.88;;;4.75;98.21
59043;BME280;44826;51.596;5.624;2023-02-22T05:21:34;101214.31;;;4.75;97.69
59043;BME280;44826;51.596;5.624;2023-02-22T05:24:00;101217.72;;;4.74;98.20
59043;BME280;44826;51.596;5.624;2023-02-22T05:26:25;101210.88;;;4.75;97.95
59043;BME280;44826;51.596;5.624;2023-02-22T05:28:50;101212.56;;;4.74;98.12
59043;BME280;44826;51.596;5.624;2023-02-22T05:31:15;101208.31;;;4.75;97.67
59043;BME280;44826;51.596;5.624;2023-02-22T05:33:41;101208.28;;;4.71;98.23
59043;BME280;44826;51.596;5.624;2023-02-22T05:36:07;101198.81;;;4.72;98.53
59043;BME280;44826;51.596;5.624;2023-02-22T05:38:33;101197.13;;;4.74;98.46
59043;BME280;44826;51.596;5.624;2023-02-22T05:40:59;101194.56;;;4.76;98.45
59043;BME280;44826;51.596;5.624;2023-02-22T05:43:25;101192.81;;;4.76;98.63
59043;BME280;44826;51.596;5.624;2023-02-22T05:45:50;101194.56;;;4.77;98.71
59043;BME280;44826;51.596;5.624;2023-02-22T05:48:15;101184.22;;;4.79;99.19
59043;BME280;44826;51.596;5.624;2023-02-22T05:50:40;101185.09;;;4.81;98.80
59043;BME280;44826;51.596;5.624;2023-02-22T05:53:06;101185.13;;;4.82;99.18
59043;BME280;44826;51.596;5.624;2023-02-22T05:55:31;101177.38;;;4.84;98.71
59043;BME280;44826;51.596;5.624;2023-02-22T05:57:57;101180.84;;;4.86;98.54
59043;BME280;44826;51.596;5.624;2023-02-22T06:00:27;101174.84;;;4.85;98.78
59043;BME280;44826;51.596;5.624;2023-02-22T06:02:57;101163.66;;;4.86;98.54
59043;BME280;44826;51.596;5.624;2023-02-22T06:05:23;101167.09;;;4.87;98.93
59043;BME280;44826;51.596;5.624;2023-02-22T06:07:49;101168.81;;;4.86;98.63
59043;BME280;44826;51.596;5.624;2023-02-22T06:10:15;101163.66;;;4.88;98.50
59043;BME280;44826;51.596;5.624;2023-02-22T06:12:40;101167.09;;;4.87;98.61
59043;BME280;44826;51.596;5.624;2023-02-22T06:15:06;101161.94;;;4.87;99.07
59043;BME280;44826;51.596;5.624;2023-02-22T06:17:31;101163.66;;;4.88;99.00
59043;BME280;44826;51.596;5.624;2023-02-22T06:19:56;101158.50;;;4.88;98.98
59043;BME280;44826;51.596;5.624;2023-02-22T06:22:22;101149.03;;;4.89;98.49
59043;BME280;44826;51.596;5.624;2023-02-22T06:24:47;101150.78;;;4.88;98.80
59043;BME280;44826;51.596;5.624;2023-02-22T06:27:13;101150.78;;;4.86;98.25
59043;BME280;44826;51.596;5.624;2023-02-22T06:29:38;101147.34;;;4.84;98.63
59043;BME280;44826;51.596;5.624;2023-02-22T06:32:03;101134.41;;;4.83;98.20
59043;BME280;44826;51.596;5.624;2023-02-22T06:34:29;101130.16;;;4.83;98.22
59043;BME280;44826;51.596;5.624;2023-02-22T06:36:54;101126.72;;;4.84;98.25
59043;BME280;44826;51.596;5.624;2023-02-22T06:39:19;101125.00;;;4.83;98.61
59043;BME280;44826;51.596;5.624;2023-02-22T06:41:46;101128.41;;;4.81;98.51
59043;BME280;44826;51.596;5.624;2023-02-22T06:44:13;101128.41;;;4.78;98.48
59043;BME280;44826;51.596;5.624;2023-02-22T06:46:38;101132.69;;;4.79;98.87
59043;BME280;44826;51.596;5.624;2023-02-22T06:49:04;101130.97;;;4.81;98.35
59043;BME280;44826;51.596;5.624;2023-02-22T06:51:35;101127.53;;;4.82;98.35
59043;BME280;44826;51.596;5.624;2023-02-22T06:54:01;101121.53;;;4.83;98.57
59043;BME280;44826;51.596;5.624;2023-02-22T06:56:27;101123.25;;;4.81;98.95
59043;BME280;44826;51.596;5.624;2023-02-22T06:58:52;101130.97;;;4.81;98.49
59043;BME280;44826;51.596;5.624;2023-02-22T07:01:17;101134.41;;;4.83;98.62
59043;BME280;44826;51.596;5.624;2023-02-22T07:03:42;101127.56;;;4.85;99.17
59043;BME280;44826;51.596;5.624;2023-02-22T07:06:08;101136.16;;;4.87;98.79
59043;BME280;44826;51.596;5.624;2023-02-22T07:08:35;101134.44;;;4.86;98.29
59043;BME280;44826;51.596;5.624;2023-02-22T07:11:00;101145.59;;;4.85;98.51
59043;BME280;44826;51.596;5.624;2023-02-22T07:13:25;101137.03;;;4.84;98.93
59043;BME280;44826;51.596;5.624;2023-02-22T07:15:51;101148.19;;;4.85;98.68
59043;BME280;44826;51.596;5.624;2023-02-22T07:18:17;101143.88;;;4.87;98.52
59043;BME280;44826;51.596;5.624;2023-02-22T07:20:42;101152.47;;;4.88;98.78
59043;BME280;44826;51.596;5.624;2023-02-22T07:23:07;101151.63;;;4.89;98.50
59043;BME280;44826;51.596;5.624;2023-02-22T07:25:33;101156.78;;;4.90;98.49
59043;BME280;44826;51.596;5.624;2023-02-22T07:27:59;101158.53;;;4.91;98.64
59043;BME280;44826;51.596;5.624;2023-02-22T07:30:27;101159.38;;;4.95;98.53
59043;BME280;44826;51.596;5.624;2023-02-22T07:32:56;101145.66;;;4.94;98.52
59043;BME280;44826;51.596;5.624;2023-02-22T07:35:27;101147.34;;;4.95;99.00
59043;BME280;44826;51.596;5.624;2023-02-22T07:37:53;101153.38;;;4.99;98.40
59043;BME280;44826;51.596;5.624;2023-02-22T07:40:19;101160.25;;;5.01;98.50
59043;BME280;44826;51.596;5.624;2023-02-22T07:43:01;101157.69;;;5.03;98.94
59043;BME280;44826;51.596;5.624;2023-02-22T07:45:32;101157.69;;;5.06;98.91
59043;BME280;44826;51.596;5.624;2023-02-22T07:47:58;101153.41;;;5.10;98.83
59043;BME280;44826;51.596;5.624;2023-02-22T07:50:26;101151.69;;;5.09;98.72
59043;BME280;44826;51.596;5.624;2023-02-22T07:52:54;101154.28;;;5.12;98.62
59043;BME280;44826;51.596;5.624;2023-02-22T07:55:23;101158.56;;;5.16;98.34
59043;BME280;44826;51.596;5.624;2023-02-22T07:57:51;101168.91;;;5.18;98.43
59043;BME280;44826;51.596;5.624;2023-02-22T08:02:51;101172.34;;;5.21;98.39
59043;BME280;44826;51.596;5.624;2023-02-22T08:05:17;101180.09;;;5.27;98.46
59043;BME280;44826;51.596;5.624;2023-02-22T08:07:42;101174.06;;;5.31;97.85
59043;BME280;44826;51.596;5.624;2023-02-22T08:10:08;101168.91;;;5.31;98.32
59043;BME280;44826;51.596;5.624;2023-02-22T08:12:34;101168.94;;;5.36;97.96
59043;BME280;44826;51.596;5.624;2023-02-22T08:15:00;101166.34;;;5.38;97.82
59043;BME280;44826;51.596;5.624;2023-02-22T08:17:26;101171.50;;;5.41;97.78
59043;BME280;44826;51.596;5.624;2023-02-22T08:19:51;101165.47;;;5.43;97.74
59043;BME280;44826;51.596;5.624;2023-02-22T08:22:16;101163.75;;;5.47;97.95
59043;BME280;44826;51.596;5.624;2023-02-22T08:24:41;101168.06;;;5.50;97.53
59043;BME280;44826;51.596;5.624;2023-02-22T08:27:07;101168.94;;;5.52;97.68
59043;BME280;44826;51.596;5.624;2023-02-22T08:29:32;101173.25;;;5.53;97.31
59043;BME280;44826;51.596;5.624;2023-02-22T08:31:59;101168.94;;;5.56;97.17
59043;BME280;44826;51.596;5.624;2023-02-22T08:34:25;101156.03;;;5.58;97.08
59043;BME280;44826;51.596;5.624;2023-02-22T08:36:50;101151.72;;;5.57;96.74
59043;BME280;44826;51.596;5.624;2023-02-22T08:39:16;101151.72;;;5.58;97.20
59043;BME280;44826;51.596;5.624;2023-02-22T08:41:41;101148.28;;;5.59;97.19
59043;BME280;44826;51.596;5.624;2023-02-22T08:44:06;101141.41;;;5.60;96.87
59043;BME280;44826;51.596;5.624;2023-02-22T08:46:31;101143.13;;;5.62;96.64
59043;BME280;44826;51.596;5.624;2023-02-22T08:48:57;101147.41;;;5.67;96.48
59043;BME280;44826;51.596;5.624;2023-02-22T08:51:22;101148.28;;;5.69;96.75
59043;BME280;44826;51.596;5.624;2023-02-22T08:53:47;101150.00;;;5.73;96.49
59043;BME280;44826;51.596;5.624;2023-02-22T08:56:13;101143.09;;;5.81;96.46
59043;BME280;44826;51.596;5.624;2023-02-22T08:58:38;101137.94;;;5.87;96.71
59043;BME280;44826;51.596;5.624;2023-02-22T09:01:04;101136.19;;;5.94;96.64
59043;BME280;44826;51.596;5.624;2023-02-22T09:03:29;101142.22;;;5.99;96.05
59043;BME280;44826;51.596;5.624;2023-02-22T09:05:54;101141.38;;;6.05;96.03
59043;BME280;44826;51.596;5.624;2023-02-22T09:08:20;101146.53;;;6.10;95.89
59043;BME280;44826;51.596;5.624;2023-02-22T09:10:45;101131.88;;;6.16;96.28
59043;BME280;44826;51.596;5.624;2023-02-22T09:13:12;101124.13;;;6.19;95.69
59043;BME280;44826;51.596;5.624;2023-02-22T09:15:38;101128.41;;;6.23;95.75
59043;BME280;44826;51.596;5.624;2023-02-22T09:18:06;101117.22;;;6.28;95.47
59043;BME280;44826;51.596;5.624;2023-02-22T09:20:35;101120.63;;;6.28;95.16
59043;BME280;44826;51.596;5.624;2023-02-22T09:23:01;101125.81;;;6.30;94.95
59043;BME280;44826;51.596;5.624;2023-02-22T09:25:27;101118.03;;;6.33;94.83
59043;BME280;44826;51.596;5.624;2023-02-22T09:27:54;101116.31;;;6.36;94.92
59043;BME280;44826;51.596;5.624;2023-02-22T09:30:27;101108.53;;;6.43;94.79
59043;BME280;44826;51.596;5.624;2023-02-22T09:32:58;101113.69;;;6.47;94.88
59043;BME280;44826;51.596;5.624;2023-02-22T09:35:24;101110.19;;;6.55;94.35
59043;BME280;44826;51.596;5.624;2023-02-22T09:37:52;101100.72;;;6.60;94.54
59043;BME280;44826;51.596;5.624;2023-02-22T09:40:18;101099.84;;;6.64;94.15
59043;BME280;44826;51.596;5.624;2023-02-22T09:43:02;101101.50;;;6.68;93.95
59043;BME280;44826;51.596;5.624;2023-02-22T09:45:39;101104.94;;;6.70;93.49
59043;BME280;44826;51.596;5.624;2023-02-22T09:48:10;101104.09;;;6.73;93.24
59043;BME280;44826;51.596;5.624;2023-02-22T09:50:40;101096.31;;;6.77;93.45
59043;BME280;44826;51.596;5.624;2023-02-22T09:53:27;101097.13;;;6.84;93.54
59043;BME280;44826;51.596;5.624;2023-02-22T09:56:03;101086.75;;;6.87;93.39
59043;BME280;44826;51.596;5.624;2023-02-22T09:58:38;101090.16;;;6.94;93.57
59043;BME280;44826;51.596;5.624;2023-02-22T10:06:31;101081.44;;;7.10;92.57
59043;BME280;44826;51.596;5.624;2023-02-22T10:09:00;101081.38;;;7.15;92.24
59043;BME280;44826;51.596;5.624;2023-02-22T10:11:39;101080.47;;;7.22;92.05
59043;BME280;44826;51.596;5.624;2023-02-22T10:14:27;101074.38;;;7.29;92.23
59043;BME280;44826;51.596;5.624;2023-02-22T10:20:01;101070.78;;;7.43;91.68
59043;BME280;44826;51.596;5.624;2023-02-22T10:23:01;101080.22;;;7.52;92.22
59043;BME280;44826;51.596;5.624;2023-02-22T10:25:35;101075.81;;;7.60;91.04
59043;BME280;44826;51.596;5.624;2023-02-22T10:30:53;101080.84;;;7.75;91.09
59043;BME280;44826;51.596;5.624;2023-02-22T10:33:23;101068.69;;;7.84;90.31
59043;BME280;44826;51.596;5.624;2023-02-22T10:35:51;101077.25;;;7.90;89.43
59043;BME280;44826;51.596;5.624;2023-02-22T10:38:24;101067.69;;;7.97;88.50
59043;BME280;44826;51.596;5.624;2023-02-22T10:43:21;101066.69;;;8.09;88.38
59043;BME280;44826;51.596;5.624;2023-02-22T10:45:50;101063.97;;;8.18;88.47
59043;BME280;44826;51.596;5.624;2023-02-22T10:48:18;101064.72;;;8.28;87.65
59043;BME280;44826;51.596;5.624;2023-02-22T10:50:45;101057.72;;;8.37;87.50
59043;BME280;44826;51.596;5.624;2023-02-22T10:53:12;101062.78;;;8.44;85.90
59043;BME280;44826;51.596;5.624;2023-02-22T10:56:05;101067.91;;;8.50;86.26
59043;BME280;44826;51.596;5.624;2023-02-22T10:58:56;101071.25;;;8.60;86.17
59043;BME280;44826;51.596;5.624;2023-02-22T11:04:14;101068.44;;;8.76;85.81
59043;BME280;44826;51.596;5.624;2023-02-22T11:06:42;101070.06;;;8.81;82.99
59043;BME280;44826;51.596;5.624;2023-02-22T11:11:43;101070.72;;;8.98;83.70
59043;BME280;44826;51.596;5.624;2023-02-22T11:14:10;101071.44;;;9.06;83.55
59043;BME280;44826;51.596;5.624;2023-02-22T11:21:40;101062.28;;;9.38;81.22
59043;BME280;44826;51.596;5.624;2023-02-22T11:24:08;101064.66;;;9.49;80.83
59043;BME280;44826;51.596;5.624;2023-02-22T11:26:46;101061.03;;;9.57;81.52
59043;BME280;44826;51.596;5.624;2023-02-22T11:29:25;101061.00;;;9.61;79.80
59043;BME280;44826;51.596;5.624;2023-02-22T11:31:52;101064.41;;;9.64;79.63
59043;BME280;44826;51.596;5.624;2023-02-22T11:34:28;101059.13;;;9.67;79.97
59043;BME280;44826;51.596;5.624;2023-02-22T11:36:55;101053.88;;;9.72;80.22
59043;BME280;44826;51.596;5.624;2023-02-22T11:39:29;101058.13;;;9.76;79.97
59043;BME280;44826;51.596;5.624;2023-02-22T11:42:21;101044.19;;;9.80;79.78
59043;BME280;44826;51.596;5.624;2023-02-22T11:44:47;101040.66;;;9.84;77.31
59043;BME280;44826;51.596;5.624;2023-02-22T11:47:13;101040.50;;;9.91;77.42
59043;BME280;44826;51.596;5.624;2023-02-22T11:49:42;101033.53;;;9.93;77.36
59043;BME280;44826;51.596;5.624;2023-02-22T12:00:18;101013.19;;;10.15;77.11
59043;BME280;44826;51.596;5.624;2023-02-22T12:06:12;101001.63;;;10.27;78.14
59043;BME280;44826;51.596;5.624;2023-02-22T12:08:55;101005.06;;;10.29;77.02
59043;BME280;44826;51.596;5.624;2023-02-22T12:12:30;101005.88;;;10.31;78.46
59043;BME280;44826;51.596;5.624;2023-02-22T12:17:14;100997.13;;;10.35;75.69
59043;BME280;44826;51.596;5.624;2023-02-22T12:19:48;101002.31;;;10.38;74.15
59043;BME280;44826;51.596;5.624;2023-02-22T12:22:19;100995.22;;;10.45;74.89
59043;BME280;44826;51.596;5.624;2023-02-22T12:24:56;100994.34;;;10.46;75.94
59043;BME280;44826;51.596;5.624;2023-02-22T12:27:35;100992.56;;;10.46;75.83
59043;BME280;44826;51.596;5.624;2023-02-22T12:30:14;100989.16;;;10.44;76.15
59043;BME280;44826;51.596;5.624;2023-02-22T12:32:45;100993.56;;;10.41;75.27
59043;BME280;44826;51.596;5.624;2023-02-22T12:35:26;100993.59;;;10.38;76.07
59043;BME280;44826;51.596;5.624;2023-02-22T12:38:08;100991.06;;;10.35;76.60
59043;BME280;44826;51.596;5.624;2023-02-22T12:40:45;100986.75;;;10.35;76.20
59043;BME280;44826;51.596;5.624;2023-02-22T12:43:52;100992.75;;;10.37;77.26
59043;BME280;44826;51.596;5.624;2023-02-22T12:46:25;100995.38;;;10.36;74.43
59043;BME280;44826;51.596;5.624;2023-02-22T12:49:01;100993.66;;;10.36;76.21
59043;BME280;44826;51.596;5.624;2023-02-22T12:51:40;100993.66;;;10.36;75.46
59043;BME280;44826;51.596;5.624;2023-02-22T12:54:36;100982.47;;;10.31;75.97
59043;BME280;44826;51.596;5.624;2023-02-22T12:58:05;100984.31;;;10.27;75.97
59043;BME280;44826;51.596;5.624;2023-02-22T13:00:13;100983.53;;;10.22;74.24
59043;BME280;44826;51.596;5.624;2023-02-22T13:02:50;100995.78;;;10.17;74.92
59043;BME280;44826;51.596;5.624;2023-02-22T13:05:19;100998.47;;;10.12;74.70
59043;BME280;44826;51.596;5.624;2023-02-22T13:08:18;100996.78;;;10.11;76.94
59043;BME280;44826;51.596;5.624;2023-02-22T13:14:05;100998.72;;;10.01;75.84
59043;BME280;44826;51.596;5.624;2023-02-22T13:16:54;101001.34;;;10.00;77.41
59043;BME280;44826;51.596;5.624;2023-02-22T13:27:12;101002.50;;;9.86;78.30
59043;BME280;44826;51.596;5.624;2023-02-22T13:29:41;100997.34;;;9.83;78.70
59043;BME280;44826;51.596;5.624;2023-02-22T13:32:22;101002.59;;;9.80;78.45
59043;BME280;44826;51.596;5.624;2023-02-22T13:37:35;101000.94;;;9.76;80.06
59043;BME280;44826;51.596;5.624;2023-02-22T13:51:47;100987.31;;;9.65;82.58
59043;BME280;44826;51.596;5.624;2023-02-22T13:54:21;100987.31;;;9.65;82.67
59043;BME280;44826;51.596;5.624;2023-02-22T13:56:50;100977.00;;;9.62;82.97
59043;BME280;44826;51.596;5.624;2023-02-22T13:59:34;100983.06;;;9.62;83.30
59043;BME280;44826;51.596;5.624;2023-02-22T14:02:01;100987.44;;;9.59;82.78
59043;BME280;44826;51.596;5.624;2023-02-22T14:06:59;100998.78;;;9.54;83.66
59043;BME280;44826;51.596;5.624;2023-02-22T14:09:49;100998.00;;;9.49;83.96
59043;BME280;44826;51.596;5.624;2023-02-22T14:17:40;101001.63;;;9.40;85.04
59043;BME280;44826;51.596;5.624;2023-02-22T14:20:19;100998.16;;;9.40;85.33
59043;BME280;44826;51.596;5.624;2023-02-22T14:22:48;101001.63;;;9.40;86.42
59043;BME280;44826;51.596;5.624;2023-02-22T14:25:37;101001.59;;;9.42;85.89
59043;BME280;44826;51.596;5.624;2023-02-22T14:28:31;101002.47;;;9.41;85.77
59043;BME280;44826;51.596;5.624;2023-02-22T14:31:05;101001.69;;;9.39;86.49
59043;BME280;44826;51.596;5.624;2023-02-22T14:41:50;101001.88;;;9.26;86.62
59043;BME280;44826;51.596;5.624;2023-02-22T14:44:24;101005.38;;;9.24;86.58
59043;BME280;44826;51.596;5.624;2023-02-22T14:46:55;101007.19;;;9.20;86.79
59043;BME280;44826;51.596;5.624;2023-02-22T14:49:23;101008.97;;;9.18;86.73
59043;BME280;44826;51.596;5.624;2023-02-22T14:51:59;101006.38;;;9.17;87.33